Estación Meteorológica Peña el Pijo (Robertgarden) [ 01/30/23 15:37:29 CET ]

Fecha Hora Presion(HPa) Temp (°C) Humedad % Rocio (°C) Viento ( m/s) Direccion Lluvia 1Hora(mm) Lluvia 24H(mm) LLuvia Total(mm)
2010-Sep-24 01:01:17 1010.500 13.5 91 12.1       1.03 160.58
2010-Sep-24 02:01:12 1010.100 12.8 90 11.2       1.03 160.58
2010-Sep-24 03:03:12 1009.800 12.5 92 11.2       1.03 160.58
2010-Sep-24 04:01:14 1009.400 12.2 92 10.9       1.03 160.58
2010-Sep-24 05:01:13 1009.400 11.9 93 10.8       1.03 160.58
2010-Sep-24 06:01:13 1009.300 11.4 94 10.4       1.03 160.58
2010-Sep-24 07:01:11 1009.200 11.3 92 10.0       1.03 160.58
2010-Sep-24 08:01:16 1009.200 11.3 90 9.7       1.03 160.58
2010-Sep-24 09:01:13 1009.700 11.5 90 9.9       1.03 160.58
2010-Sep-24 10:01:14 1009.900 13.9 81 10.7       1.03 160.58
2010-Sep-24 11:01:20 1010.000 17.3 70 11.8 1.7 SSW   1.03 160.58
2010-Sep-24 12:01:14 1009.900 19.2 62 11.7       1.03 160.58
2010-Sep-24 13:01:12 1009.900 20.4 58 11.8       1.03 160.58
2010-Sep-24 14:01:17 1010.000 21.1 53 11.1       1.03 160.58
2010-Sep-24 15:01:13 1009.200 22.7 53 12.6       1.03 160.58
2010-Sep-24 16:01:13 1008.800 23.8 44 10.8       1.03 160.58
2010-Sep-24 17:01:14 1008.700 23.4 44 10.4       1.03 160.58
2010-Sep-24 18:01:17 1008.300 22.3 46 10.1       1.03 160.58
2010-Sep-24 19:01:12 1007.900 19.2 54 9.7         160.58
2010-Sep-24 20:01:13 1008.100 17.4 60 9.6         160.58
2010-Sep-24 21:01:13 1008.300 15.6 70 10.2         160.58
2010-Sep-24 22:01:17 1008.600 13.6 78 9.8         160.58
2010-Sep-24 23:01:14 1008.400 12.2 82 9.2         160.58

Temperatura Máxima:23°    Temperatura Mínima:11°
Presión Máxima:1010.500 Hpa    Presión Mínima:1007.900 Hpa


Volver